Time;durP1;ratioP1;P1;durP2;ratioP2;P2;SDS_P1;SDS_P2;PMS_P1;PMS_P2;Temp;Humidity;BMP_temperature;BMP_pressure;BME280_temperature;BME280_humidity;BME280_pressure;Samples;Min_cycle;Max_cycle;Signal;HPM_P1;HPM_P2
2021/01/16 00:00:07;;;;;;;22.23;11.73;;;3.20;99.90;;;;;;4170779;28;20036;-67
2021/01/16 00:02:08;;;;;;;18.77;11.38;;;3.20;99.90;;;;;;4175299;28;20275;-67
2021/01/16 00:04:09;;;;;;;20.58;11.48;;;3.20;99.90;;;;;;4173339;28;20099;-67
2021/01/16 00:06:10;;;;;;;18.35;11.52;;;3.20;99.90;;;;;;4171552;28;20103;-67
2021/01/16 00:08:15;;;;;;;20.77;11.98;;;3.20;99.90;;;;;;4173626;28;20548;-67
2021/01/16 00:10:16;;;;;;;16.73;10.55;;;3.20;99.90;;;;;;4172952;28;20080;-67
2021/01/16 00:12:17;;;;;;;21.33;12.43;;;3.20;99.90;;;;;;4181444;28;20054;-67
2021/01/16 00:14:17;;;;;;;17.67;11.25;;;3.20;99.90;;;;;;4171833;28;20036;-67
2021/01/16 00:16:18;;;;;;;19.60;11.50;;;3.20;99.90;;;;;;4187909;28;20036;-67
2021/01/16 00:18:23;;;;;;;23.35;13.10;;;3.20;99.90;;;;;;4187717;28;20033;-67
2021/01/16 00:20:24;;;;;;;21.75;12.80;;;3.20;99.90;;;;;;4188205;28;20041;-67
2021/01/16 00:22:25;;;;;;;22.40;11.93;;;3.20;99.90;;;;;;4188228;28;20127;-67
2021/01/16 00:24:26;;;;;;;20.13;11.88;;;3.20;99.90;;;;;;4189804;28;20053;-67
2021/01/16 00:26:26;;;;;;;19.33;11.88;;;3.10;99.90;;;;;;4188731;28;20044;-67
2021/01/16 00:28:30;;;;;;;19.38;11.50;;;3.10;99.90;;;;;;4189749;28;20044;-67
2021/01/16 00:30:36;;;;;;;18.38;11.05;;;3.10;99.90;;;;;;4188689;28;20086;-67
2021/01/16 00:32:38;;;;;;;23.23;12.60;;;3.10;99.90;;;;;;4189762;28;20071;-67
2021/01/16 00:34:38;;;;;;;20.45;12.30;;;3.10;99.90;;;;;;4187952;28;20033;-67
2021/01/16 00:36:39;;;;;;;19.67;11.25;;;3.10;99.90;;;;;;4189590;28;20503;-67
2021/01/16 00:38:41;;;;;;;18.75;11.50;;;3.10;99.90;;;;;;4189403;28;20330;-67
2021/01/16 00:40:42;;;;;;;20.42;12.05;;;3.10;99.90;;;;;;4187183;28;20404;-67
2021/01/16 00:42:45;;;;;;;17.50;11.30;;;3.10;99.90;;;;;;4187834;28;20033;-67
2021/01/16 00:44:46;;;;;;;26.35;12.52;;;3.10;99.90;;;;;;4198704;28;20032;-67
2021/01/16 00:46:46;;;;;;;19.77;11.65;;;3.20;99.90;;;;;;4193010;28;20036;-67
2021/01/16 00:48:47;;;;;;;17.83;10.57;;;3.10;99.90;;;;;;4190802;28;20040;-67
2021/01/16 00:50:49;;;;;;;18.05;11.18;;;3.10;99.90;;;;;;4191947;28;20044;-67
2021/01/16 00:52:56;;;;;;;;;;;3.10;99.90;;;;;;4193368;28;20040;-67
2021/01/16 00:54:57;;;;;;;19.10;11.30;;;3.10;99.90;;;;;;4192510;28;19916;-67
2021/01/16 00:56:57;;;;;;;16.35;10.20;;;3.10;99.90;;;;;;4191551;28;20037;-67
2021/01/16 00:58:58;;;;;;;20.25;11.57;;;3.10;99.90;;;;;;4192863;28;20067;-67
2021/01/16 01:00:59;;;;;;;20.77;12.00;;;3.10;99.90;;;;;;4173867;28;20087;-68
2021/01/16 01:03:00;;;;;;;19.45;11.13;;;3.10;99.90;;;;;;4191037;28;20102;-67
2021/01/16 01:05:00;;;;;;;17.98;10.75;;;3.10;99.90;;;;;;4205071;28;20066;-67
2021/01/16 01:07:01;;;;;;;19.88;11.35;;;3.10;99.90;;;;;;4192511;28;20048;-67
2021/01/16 01:09:03;;;;;;;18.08;11.48;;;3.10;99.90;;;;;;4192488;28;20044;-67
2021/01/16 01:11:04;;;;;;;21.38;11.60;;;3.00;99.90;;;;;;4191049;28;20115;-67
2021/01/16 01:13:04;;;;;;;21.08;12.60;;;3.10;99.90;;;;;;4191807;28;20058;-67
2021/01/16 01:15:07;;;;;;;16.85;10.20;;;3.10;99.90;;;;;;4191956;28;20122;-67
2021/01/16 01:17:16;;;;;;;16.98;10.85;;;3.10;99.90;;;;;;4193000;28;20048;-67
2021/01/16 01:19:16;;;;;;;19.60;11.13;;;3.10;99.90;;;;;;4190122;28;20527;-67
2021/01/16 01:21:21;;;;;;;16.27;10.18;;;3.10;99.90;;;;;;4213106;28;20039;-67
2021/01/16 01:23:22;;;;;;;16.52;10.38;;;3.10;99.90;;;;;;4184138;28;20064;-67
2021/01/16 01:25:23;;;;;;;17.92;10.68;;;3.10;99.90;;;;;;4193059;28;20036;-67
2021/01/16 01:27:24;;;;;;;19.25;11.35;;;3.10;99.90;;;;;;4192666;28;20035;-67
2021/01/16 01:29:25;;;;;;;17.88;11.00;;;3.10;99.90;;;;;;4192327;28;20447;-67
2021/01/16 01:31:25;;;;;;;17.77;10.52;;;3.10;99.90;;;;;;4191980;28;20043;-67
2021/01/16 01:33:26;;;;;;;17.00;10.68;;;3.10;99.90;;;;;;4192327;28;20317;-67
2021/01/16 01:35:27;;;;;;;19.77;11.35;;;3.20;99.90;;;;;;4195902;28;20042;-67
2021/01/16 01:37:28;;;;;;;18.13;10.60;;;3.20;99.90;;;;;;4180288;28;20038;-67
2021/01/16 01:39:28;;;;;;;21.92;11.40;;;3.10;99.90;;;;;;4184388;28;20521;-67
2021/01/16 01:41:29;;;;;;;20.45;11.07;;;3.20;99.90;;;;;;4190628;28;20145;-67
2021/01/16 01:43:29;;;;;;;16.60;10.15;;;3.10;99.90;;;;;;4189784;28;20491;-67
2021/01/16 01:45:31;;;;;;;18.85;11.00;;;3.10;99.90;;;;;;4192580;28;20028;-67
2021/01/16 01:47:32;;;;;;;20.10;11.80;;;3.10;99.90;;;;;;4192341;28;20093;-67
2021/01/16 01:49:32;;;;;;;19.77;11.20;;;3.10;99.90;;;;;;4189892;28;20435;-67
2021/01/16 01:51:34;;;;;;;17.77;10.48;;;3.10;99.90;;;;;;4193044;28;20081;-67
2021/01/16 01:53:35;;;;;;;21.85;12.13;;;3.10;99.90;;;;;;4192291;28;20025;-67
2021/01/16 01:55:38;;;;;;;18.17;11.55;;;3.10;99.90;;;;;;4191625;28;20041;-67
2021/01/16 01:57:43;;;;;;;18.38;11.25;;;3.10;99.90;;;;;;4182422;28;20062;-67
2021/01/16 01:59:46;;;;;;;17.05;10.50;;;3.10;99.90;;;;;;4191386;28;20025;-67
2021/01/16 02:01:50;;;;;;;18.15;11.52;;;3.10;99.90;;;;;;4191416;28;20125;-67
2021/01/16 02:03:52;;;;;;;21.90;11.65;;;3.10;99.90;;;;;;4221737;28;20356;-67
2021/01/16 02:05:53;;;;;;;15.60;9.95;;;3.10;99.90;;;;;;4191753;28;20037;-67
2021/01/16 02:07:54;;;;;;;19.13;11.18;;;3.10;99.90;;;;;;4191248;28;20454;-67
2021/01/16 02:09:55;;;;;;;19.42;10.20;;;3.10;99.90;;;;;;4192475;28;20033;-67
2021/01/16 02:11:56;;;;;;;19.50;11.77;;;3.10;99.90;;;;;;4191457;28;20116;-67
2021/01/16 02:13:56;;;;;;;17.40;9.82;;;3.20;99.90;;;;;;4191307;28;20051;-67
2021/01/16 02:16:04;;;;;;;19.30;11.00;;;3.10;99.90;;;;;;4191977;28;20029;-67
2021/01/16 02:18:30;;;;;;;20.42;10.82;;;3.20;99.90;;;;;;4191053;28;20690;-67
2021/01/16 02:20:36;;;;;;;18.20;9.45;;;3.20;99.90;;;;;;4191551;28;20044;-67
2021/01/16 02:22:55;;;;;;;18.30;11.25;;;3.20;99.90;;;;;;4189919;28;20052;-67
2021/01/16 02:25:13;;;;;;;16.88;10.18;;;3.20;99.90;;;;;;4183554;28;20041;-67
2021/01/16 02:27:35;;;;;;;17.42;10.00;;;3.10;99.90;;;;;;4191028;28;20057;-67
2021/01/16 02:29:35;;;;;;;19.80;9.85;;;3.10;99.90;;;;;;4185445;28;20032;-67
2021/01/16 02:31:51;;;;;;;19.20;10.55;;;3.20;99.90;;;;;;4187443;28;20055;-67
2021/01/16 02:33:54;;;;;;;18.35;10.75;;;3.20;99.90;;;;;;4181288;28;20040;-67
2021/01/16 02:36:32;;;;;;;16.20;9.68;;;3.20;99.90;;;;;;4189298;28;20045;-67
2021/01/16 02:38:56;;;;;;;15.32;9.50;;;3.10;99.90;;;;;;4171984;28;20041;-67
2021/01/16 02:41:03;;;;;;;17.35;10.30;;;3.10;99.90;;;;;;4197827;28;20339;-67
2021/01/16 02:43:03;;;;;;;17.15;10.10;;;3.10;99.90;;;;;;4174192;28;20302;-67
2021/01/16 02:45:14;;;;;;;20.48;10.52;;;3.20;99.90;;;;;;4174599;28;20116;-67
2021/01/16 02:47:29;;;;;;;17.35;9.82;;;3.20;99.90;;;;;;4171249;28;20060;-67
2021/01/16 02:49:29;;;;;;;17.00;9.85;;;3.20;99.90;;;;;;4176163;28;20167;-67
2021/01/16 02:52:03;;;;;;;16.63;10.18;;;3.20;99.90;;;;;;4181946;28;20032;-67
2021/01/16 02:54:05;;;;;;;16.02;9.98;;;3.20;99.90;;;;;;4173300;28;20036;-67
2021/01/16 02:56:14;;;;;;;18.42;10.63;;;3.20;99.90;;;;;;4174181;28;20040;-67
2021/01/16 02:58:19;;;;;;;16.30;9.65;;;3.20;99.90;;;;;;4174583;28;20377;-67
2021/01/16 03:00:21;;;;;;;16.75;10.63;;;3.20;99.90;;;;;;4172034;28;20500;-67
2021/01/16 03:02:21;;;;;;;16.85;9.95;;;3.20;99.90;;;;;;4172781;28;20049;-67
2021/01/16 03:04:22;;;;;;;16.20;10.52;;;3.10;99.90;;;;;;4173462;28;20400;-67
2021/01/16 03:06:23;;;;;;;15.90;9.80;;;3.20;99.90;;;;;;4199808;28;20581;-67
2021/01/16 03:08:24;;;;;;;17.88;10.88;;;3.10;99.90;;;;;;4170792;28;20029;-67
2021/01/16 03:10:25;;;;;;;19.38;11.40;;;3.10;99.90;;;;;;4174341;28;20654;-67
2021/01/16 03:12:26;;;;;;;18.17;10.32;;;3.20;99.90;;;;;;4164374;28;20048;-67
2021/01/16 03:14:31;;;;;;;18.52;10.40;;;3.20;99.90;;;;;;4174244;28;20037;-67
2021/01/16 03:16:37;;;;;;;17.90;10.38;;;3.20;99.90;;;;;;4173893;28;20052;-67
2021/01/16 03:18:43;;;;;;;16.83;10.05;;;3.10;99.90;;;;;;4174011;28;20040;-67
2021/01/16 03:20:44;;;;;;;17.85;10.25;;;3.10;99.90;;;;;;4175839;28;20037;-67
2021/01/16 03:22:45;;;;;;;18.55;10.35;;;3.10;99.90;;;;;;4173890;28;20392;-67
2021/01/16 03:24:51;;;;;;;17.85;10.63;;;3.10;99.90;;;;;;4173908;28;20039;-67
2021/01/16 03:26:51;;;;;;;19.58;10.73;;;3.10;99.90;;;;;;4169214;28;20037;-67
2021/01/16 03:28:52;;;;;;;17.83;11.38;;;3.10;99.90;;;;;;4174155;28;20094;-68
2021/01/16 03:30:52;;;;;;;17.98;10.30;;;3.10;99.90;;;;;;4171876;28;20037;-67
2021/01/16 03:32:53;;;;;;;18.45;10.18;;;3.10;99.90;;;;;;4174247;28;20033;-67
2021/01/16 03:34:54;;;;;;;19.73;10.90;;;3.10;99.90;;;;;;4174023;28;20044;-67
2021/01/16 03:36:54;;;;;;;16.45;10.30;;;3.10;99.90;;;;;;4173587;28;20029;-67
2021/01/16 03:38:55;;;;;;;16.20;10.15;;;3.10;99.90;;;;;;4174092;28;20110;-67
2021/01/16 03:40:56;;;;;;;16.08;10.48;;;3.10;99.90;;;;;;4171894;28;20041;-67
2021/01/16 03:42:56;;;;;;;18.83;10.50;;;3.10;99.90;;;;;;4171704;28;20041;-67
2021/01/16 03:44:57;;;;;;;17.17;10.27;;;3.10;99.90;;;;;;4174336;28;20040;-67
2021/01/16 03:46:57;;;;;;;18.70;10.55;;;3.10;99.90;;;;;;4171873;28;20045;-67
2021/01/16 03:48:58;;;;;;;18.17;11.07;;;3.10;99.90;;;;;;4176360;28;20056;-67
2021/01/16 03:50:58;;;;;;;17.20;10.07;;;3.20;99.90;;;;;;4174211;28;20155;-67
2021/01/16 03:52:59;;;;;;;17.33;10.52;;;3.20;99.90;;;;;;4174170;28;20040;-67
2021/01/16 03:55:00;;;;;;;17.45;10.48;;;3.20;99.90;;;;;;4173428;28;20389;-67
2021/01/16 03:57:00;;;;;;;15.82;10.13;;;3.20;99.90;;;;;;4174100;28;20029;-67
2021/01/16 03:59:02;;;;;;;16.83;10.43;;;3.20;99.90;;;;;;4174061;28;20107;-67
2021/01/16 04:01:03;;;;;;;16.95;10.50;;;3.20;99.90;;;;;;4173169;28;20105;-67
2021/01/16 04:03:04;;;;;;;19.17;10.80;;;3.20;99.90;;;;;;4173978;28;20080;-67
2021/01/16 04:05:06;;;;;;;18.75;10.93;;;3.20;99.90;;;;;;4173820;28;20385;-67
2021/01/16 04:07:07;;;;;;;17.27;10.43;;;3.20;99.90;;;;;;4173010;28;20470;-67
2021/01/16 04:09:08;;;;;;;20.27;10.88;;;3.20;99.90;;;;;;4174037;28;20037;-67
2021/01/16 04:11:09;;;;;;;17.45;10.05;;;3.20;99.90;;;;;;4173190;28;20043;-67
2021/01/16 04:13:10;;;;;;;16.13;10.27;;;3.20;99.90;;;;;;4173409;28;20041;-67
2021/01/16 04:15:11;;;;;;;18.85;10.10;;;3.20;99.90;;;;;;4174086;28;20041;-67
2021/01/16 04:17:11;;;;;;;19.25;11.15;;;3.20;99.90;;;;;;4172483;28;20124;-67
2021/01/16 04:19:12;;;;;;;19.58;11.10;;;3.20;99.90;;;;;;4171439;28;20037;-67
2021/01/16 04:21:12;;;;;;;17.02;10.07;;;3.20;99.90;;;;;;4175573;28;20051;-67
2021/01/16 04:23:13;;;;;;;18.80;11.25;;;3.10;99.90;;;;;;4175291;28;20463;-67
2021/01/16 04:25:14;;;;;;;19.65;11.27;;;3.20;99.90;;;;;;4176363;28;20041;-67
2021/01/16 04:27:14;;;;;;;19.08;11.30;;;3.10;99.90;;;;;;4176804;28;20048;-68
2021/01/16 04:29:15;;;;;;;21.23;11.40;;;3.10;99.90;;;;;;4176796;28;20033;-67
2021/01/16 04:31:16;;;;;;;20.10;12.23;;;3.10;99.90;;;;;;4175768;28;20040;-67
2021/01/16 04:33:17;;;;;;;20.17;11.32;;;3.10;99.90;;;;;;4176750;28;20061;-67
2021/01/16 04:35:17;;;;;;;19.98;11.55;;;3.10;99.90;;;;;;4174578;28;20044;-67
2021/01/16 04:37:18;;;;;;;21.23;11.95;;;3.00;99.90;;;;;;4176250;28;20039;-67
2021/01/16 04:39:19;;;;;;;21.15;11.90;;;3.00;99.90;;;;;;4176791;28;20052;-67
2021/01/16 04:41:20;;;;;;;20.08;11.45;;;3.00;99.90;;;;;;4176365;28;20033;-67
2021/01/16 04:43:21;;;;;;;18.48;11.38;;;3.00;99.90;;;;;;4175659;28;20049;-67
2021/01/16 04:45:22;;;;;;;18.52;11.90;;;3.00;99.90;;;;;;4174656;28;20056;-67
2021/01/16 04:47:26;;;;;;;21.63;12.82;;;2.90;99.90;;;;;;4175125;28;20585;-67
2021/01/16 04:49:27;;;;;;;20.00;11.30;;;3.00;99.90;;;;;;4176230;28;20045;-67
2021/01/16 04:51:33;;;;;;;19.20;10.77;;;3.00;99.90;;;;;;4181221;28;20085;-67
2021/01/16 04:53:38;;;;;;;20.38;12.23;;;3.00;99.90;;;;;;4176405;28;20593;-67
2021/01/16 04:55:39;;;;;;;21.75;12.35;;;3.00;99.90;;;;;;4176719;28;20385;-67
2021/01/16 04:57:40;;;;;;;21.33;12.10;;;2.90;99.90;;;;;;4175061;28;20029;-67
2021/01/16 04:59:41;;;;;;;24.05;12.63;;;2.90;99.90;;;;;;4176742;28;20033;-67
2021/01/16 05:01:45;;;;;;;24.25;12.68;;;2.90;99.90;;;;;;4157705;28;20049;-67
2021/01/16 05:03:50;;;;;;;20.38;11.32;;;2.90;99.90;;;;;;4177110;28;20065;-67
2021/01/16 05:05:55;;;;;;;20.60;12.23;;;2.90;99.90;;;;;;4176173;28;20029;-67
2021/01/16 05:07:56;;;;;;;23.95;13.15;;;2.90;99.90;;;;;;4173892;28;20079;-67
2021/01/16 05:09:58;;;;;;;19.25;11.85;;;2.80;99.90;;;;;;4203058;28;20036;-67
2021/01/16 05:12:26;;;;;;;19.30;11.50;;;2.80;99.90;;;;;;4170266;28;20039;-67
2021/01/16 05:14:38;;;;;;;22.45;11.68;;;2.80;99.90;;;;;;4189112;28;20063;-67
2021/01/16 05:16:59;;;;;;;18.67;11.48;;;2.90;99.90;;;;;;4192765;28;20036;-67
2021/01/16 05:19:02;;;;;;;20.05;11.77;;;2.80;99.90;;;;;;4170356;28;20037;-67
2021/01/16 05:21:03;;;;;;;22.92;12.00;;;2.80;99.90;;;;;;4180096;28;20044;-67
2021/01/16 05:23:16;;;;;;;21.85;12.02;;;2.80;99.90;;;;;;4176550;28;20048;-67
2021/01/16 05:25:17;;;;;;;21.00;11.93;;;2.80;99.90;;;;;;4173229;28;20094;-67
2021/01/16 05:27:25;;;;;;;21.25;12.38;;;2.80;99.90;;;;;;4175861;28;20528;-67
2021/01/16 05:29:27;;;;;;;21.00;11.77;;;2.80;99.90;;;;;;4175719;28;20044;-67
2021/01/16 05:31:27;;;;;;;20.98;11.57;;;2.80;99.90;;;;;;4175033;28;20120;-67
2021/01/16 05:33:31;;;;;;;19.25;11.50;;;2.80;99.90;;;;;;4173553;28;20044;-67
2021/01/16 05:35:32;;;;;;;19.40;11.63;;;2.90;99.90;;;;;;4173924;28;20028;-67
2021/01/16 05:37:33;;;;;;;20.77;12.60;;;2.90;99.90;;;;;;4175488;28;20056;-67
2021/01/16 05:39:34;;;;;;;18.38;11.32;;;2.90;99.90;;;;;;4177773;28;20508;-67
2021/01/16 05:41:35;;;;;;;19.35;11.45;;;2.90;99.90;;;;;;4175786;28;20033;-67
2021/01/16 05:43:37;;;;;;;20.13;12.00;;;2.90;99.90;;;;;;4173336;28;20134;-67
2021/01/16 05:45:39;;;;;;;25.15;13.55;;;2.80;99.90;;;;;;4175223;28;20037;-67
2021/01/16 05:47:45;;;;;;;20.90;12.10;;;2.80;99.90;;;;;;4175835;28;20447;-67
2021/01/16 05:49:45;;;;;;;21.80;13.30;;;2.80;99.90;;;;;;4157164;28;20068;-67
2021/01/16 05:51:47;;;;;;;23.10;12.65;;;2.80;99.90;;;;;;4176306;28;20063;-67
2021/01/16 05:53:49;;;;;;;20.52;12.13;;;2.70;99.90;;;;;;4175637;28;20481;-67
2021/01/16 05:55:49;;;;;;;20.10;11.98;;;2.70;99.90;;;;;;4174759;28;20033;-67
2021/01/16 05:58:03;;;;;;;20.25;12.38;;;2.70;99.90;;;;;;4175850;28;20029;-67
2021/01/16 06:00:04;;;;;;;21.52;12.95;;;2.70;99.90;;;;;;4176837;28;20036;-67
2021/01/16 06:02:08;;;;;;;21.33;12.07;;;2.70;99.90;;;;;;4172800;28;20433;-67
2021/01/16 06:04:21;;;;;;;21.58;11.98;;;2.70;99.90;;;;;;4174399;28;20040;-67
2021/01/16 06:06:22;;;;;;;;;;;2.70;99.90;;;;;;4175894;28;20048;-67
2021/01/16 06:08:22;;;;;;;19.13;11.13;;;2.70;99.90;;;;;;4174758;28;20284;-67
2021/01/16 06:10:24;;;;;;;19.38;11.90;;;2.70;99.90;;;;;;4175095;28;20044;-67
2021/01/16 06:12:24;;;;;;;23.55;12.85;;;2.70;99.90;;;;;;4172956;28;20268;-67
2021/01/16 06:14:26;;;;;;;24.83;13.30;;;2.70;99.90;;;;;;4176238;28;20041;-67
2021/01/16 06:16:36;;;;;;;20.52;12.50;;;2.70;99.90;;;;;;4174339;28;20064;-67
2021/01/16 06:18:43;;;;;;;22.35;12.27;;;2.70;99.90;;;;;;4174486;28;20120;-67
2021/01/16 06:20:52;;;;;;;22.17;12.43;;;2.70;99.90;;;;;;4172104;28;20192;-67
2021/01/16 06:22:53;;;;;;;23.08;13.55;;;2.70;99.90;;;;;;4161823;28;20091;-67
2021/01/16 06:24:54;;;;;;;19.40;12.30;;;2.70;99.90;;;;;;4173224;28;20310;-67
2021/01/16 06:26:59;;;;;;;23.65;13.68;;;2.70;99.90;;;;;;4173122;28;20452;-67
2021/01/16 06:29:01;;;;;;;21.48;13.38;;;2.70;99.90;;;;;;4172278;28;20068;-67
2021/01/16 06:31:03;;;;;;;;;;;2.70;99.90;;;;;;4174498;28;20067;-67
2021/01/16 06:33:05;;;;;;;21.02;12.02;;;2.70;99.90;;;;;;4175209;28;20362;-67
2021/01/16 06:35:08;;;;;;;20.70;12.23;;;2.70;99.90;;;;;;4171577;28;20465;-67
2021/01/16 06:37:19;;;;;;;23.23;13.77;;;2.70;99.90;;;;;;4159135;28;20223;-67
2021/01/16 06:39:33;;;;;;;23.27;12.65;;;2.70;99.90;;;;;;4184859;28;20107;-67
2021/01/16 06:41:35;;;;;;;22.40;12.57;;;2.70;99.90;;;;;;4179059;28;20037;-67
2021/01/16 06:43:39;;;;;;;22.52;13.52;;;2.70;99.90;;;;;;4172845;28;20091;-67
2021/01/16 06:45:40;;;;;;;23.48;13.45;;;2.70;99.90;;;;;;4170569;28;20287;-67
2021/01/16 06:47:40;;;;;;;26.00;13.95;;;2.70;99.90;;;;;;4174802;28;20484;-67
2021/01/16 06:49:47;;;;;;;24.63;14.95;;;2.70;99.90;;;;;;4172323;28;20506;-67
2021/01/16 06:51:58;;;;;;;24.90;14.38;;;2.70;99.90;;;;;;4174490;28;20048;-67
2021/01/16 06:54:05;;;;;;;21.92;13.68;;;2.70;99.90;;;;;;4171137;28;20052;-67
2021/01/16 06:56:10;;;;;;;25.13;14.35;;;2.70;99.90;;;;;;4171159;28;20048;-67
2021/01/16 06:58:18;;;;;;;25.27;14.75;;;2.70;99.90;;;;;;4173911;28;20048;-67
2021/01/16 07:00:19;;;;;;;25.27;14.20;;;2.70;99.90;;;;;;4172235;28;20041;-67
2021/01/16 07:02:31;;;;;;;28.77;14.90;;;2.70;99.90;;;;;;4170431;28;20057;-67
2021/01/16 07:04:33;;;;;;;24.90;14.27;;;2.70;99.90;;;;;;4172382;28;20044;-67
2021/01/16 07:06:47;;;;;;;24.55;14.00;;;2.70;99.90;;;;;;4174309;28;20112;-67
2021/01/16 07:08:50;;;;;;;27.27;14.82;;;2.70;99.90;;;;;;4194572;28;20036;-67
2021/01/16 07:10:52;;;;;;;24.92;13.90;;;2.70;99.90;;;;;;4186017;28;20033;-67
2021/01/16 07:12:53;;;;;;;23.85;14.95;;;2.70;99.90;;;;;;4190789;28;20115;-67
2021/01/16 07:14:54;;;;;;;22.13;13.18;;;2.70;99.90;;;;;;4171732;28;20102;-67
2021/01/16 07:16:55;;;;;;;25.85;14.27;;;2.70;99.90;;;;;;4190244;28;20132;-67
2021/01/16 07:18:56;;;;;;;22.50;13.85;;;2.70;99.90;;;;;;4188295;28;20040;-67
2021/01/16 07:20:57;;;;;;;25.17;15.77;;;2.60;99.90;;;;;;4188177;28;20037;-67
2021/01/16 07:22:59;;;;;;;25.25;15.30;;;2.60;99.90;;;;;;4191340;28;20395;-67
2021/01/16 07:25:02;;;;;;;25.95;14.38;;;2.60;99.90;;;;;;4188095;28;20071;-67
2021/01/16 07:27:03;;;;;;;25.02;14.13;;;2.60;99.90;;;;;;4191228;28;20028;-67
2021/01/16 07:29:08;;;;;;;26.45;13.73;;;2.60;99.90;;;;;;4191608;28;20507;-67
2021/01/16 07:31:09;;;;;;;27.75;15.40;;;2.60;99.90;;;;;;4195105;28;20028;-67
2021/01/16 07:33:14;;;;;;;25.50;15.25;;;2.50;99.90;;;;;;4192372;28;20127;-67
2021/01/16 07:35:20;;;;;;;26.70;15.27;;;2.50;99.90;;;;;;4184176;28;20037;-67
2021/01/16 07:37:22;;;;;;;24.23;14.43;;;2.50;99.90;;;;;;4179204;28;20119;-67
2021/01/16 07:39:26;;;;;;;23.23;14.20;;;2.50;99.90;;;;;;4175747;28;20388;-67
2021/01/16 07:41:30;;;;;;;25.60;14.77;;;2.60;99.90;;;;;;4184424;28;20035;-67
2021/01/16 07:43:56;;;;;;;25.08;15.15;;;2.50;99.90;;;;;;4174329;28;20068;-68
2021/01/16 07:46:00;;;;;;;25.85;15.02;;;2.50;99.90;;;;;;4186640;28;20405;-68
2021/01/16 07:48:05;;;;;;;24.58;14.05;;;2.50;99.90;;;;;;4203902;28;20036;-66
2021/01/16 07:50:29;;;;;;;25.52;14.93;;;2.50;99.90;;;;;;4217496;28;20114;-66
2021/01/16 07:52:31;;;;;;;25.52;15.00;;;2.50;99.90;;;;;;4199709;28;20198;-66
2021/01/16 07:54:38;;;;;;;28.33;14.77;;;2.50;99.90;;;;;;4199788;28;20074;-66
2021/01/16 07:56:43;;;;;;;25.52;14.82;;;2.60;99.90;;;;;;4188801;28;20121;-66
2021/01/16 07:58:54;;;;;;;25.23;14.82;;;2.50;99.90;;;;;;4177194;28;20500;-66
2021/01/16 08:01:09;;;;;;;27.02;15.43;;;2.60;99.90;;;;;;4171770;28;20063;-66
2021/01/16 08:03:27;;;;;;;28.23;14.48;;;2.60;99.90;;;;;;4181339;28;20215;-66
2021/01/16 08:05:37;;;;;;;26.92;15.55;;;2.60;99.90;;;;;;4192880;28;20388;-66
2021/01/16 08:08:16;;;;;;;28.38;14.70;;;2.60;99.90;;;;;;4193509;28;20036;-66
2021/01/16 08:10:18;;;;;;;25.73;14.95;;;2.60;99.90;;;;;;4180513;28;20228;-66
2021/01/16 08:12:24;;;;;;;27.02;15.80;;;2.60;99.90;;;;;;4176605;28;20435;-66
2021/01/16 08:14:31;;;;;;;30.00;16.25;;;2.60;99.90;;;;;;4201313;28;20036;-65
2021/01/16 08:16:32;;;;;;;24.27;14.00;;;2.60;99.90;;;;;;4206818;28;20040;-65
2021/01/16 08:18:36;;;;;;;29.27;16.00;;;2.60;99.90;;;;;;4194853;28;20032;-65
2021/01/16 08:20:40;;;;;;;27.50;15.48;;;2.60;99.90;;;;;;4192068;28;20253;-65
2021/01/16 08:22:43;;;;;;;27.77;16.02;;;2.60;99.90;;;;;;4192660;28;20041;-65
2021/01/16 08:25:02;;;;;;;27.20;16.10;;;2.50;99.90;;;;;;4193418;28;20055;-66
2021/01/16 08:27:03;;;;;;;26.27;15.98;;;2.50;99.90;;;;;;4195160;28;20071;-66
2021/01/16 08:29:05;;;;;;;32.03;16.37;;;2.50;99.90;;;;;;4203377;28;20500;-65
2021/01/16 08:31:06;;;;;;;28.83;16.00;;;2.60;99.90;;;;;;4200031;28;20279;-65
2021/01/16 08:33:10;;;;;;;31.17;17.08;;;2.60;99.90;;;;;;4190719;28;22223;-65
2021/01/16 08:35:20;;;;;;;33.80;18.60;;;2.70;99.90;;;;;;4195621;28;20090;-66
2021/01/16 08:37:35;;;;;;;26.63;16.08;;;2.70;99.90;;;;;;4198376;28;20037;-66
2021/01/16 08:39:42;;;;;;;25.80;15.15;;;2.70;99.90;;;;;;4199667;28;20503;-66
2021/01/16 08:41:43;;;;;;;27.30;15.73;;;2.70;99.90;;;;;;4189689;28;20229;-66
2021/01/16 08:43:49;;;;;;;26.15;15.40;;;2.70;99.90;;;;;;4190923;28;20563;-66
2021/01/16 08:46:18;;;;;;;26.63;16.23;;;2.70;99.90;;;;;;4181940;28;20291;-66
2021/01/16 08:48:23;;;;;;;25.25;14.98;;;2.70;99.90;;;;;;4177645;28;20496;-66
2021/01/16 08:50:29;;;;;;;26.50;15.38;;;2.70;99.90;;;;;;4171060;28;20760;-66
2021/01/16 08:52:31;;;;;;;26.83;15.73;;;2.70;99.90;;;;;;4176025;28;20190;-66
2021/01/16 08:54:32;;;;;;;31.27;16.15;;;2.70;99.90;;;;;;4177104;28;20389;-66
2021/01/16 08:56:32;;;;;;;25.00;14.35;;;2.70;99.90;;;;;;4179072;28;20037;-66
2021/01/16 08:58:33;;;;;;;28.95;16.15;;;2.70;99.90;;;;;;4185795;28;20048;-66
2021/01/16 09:00:36;;;;;;;28.77;16.17;;;2.70;99.90;;;;;;4187490;28;20492;-66
2021/01/16 09:02:36;;;;;;;26.00;14.77;;;2.70;99.90;;;;;;4183267;28;20055;-66
2021/01/16 09:04:39;;;;;;;30.80;16.08;;;2.70;99.90;;;;;;4176977;28;20478;-66
2021/01/16 09:06:40;;;;;;;29.25;17.17;;;2.70;99.90;;;;;;4179779;28;20168;-66
2021/01/16 09:08:46;;;;;;;28.02;15.68;;;2.70;99.90;;;;;;4183456;28;20381;-66
2021/01/16 09:10:47;;;;;;;28.10;15.45;;;2.80;99.90;;;;;;4182874;28;20040;-66
2021/01/16 09:12:50;;;;;;;33.70;17.40;;;2.80;99.90;;;;;;4182725;28;20059;-66
2021/01/16 09:14:51;;;;;;;28.73;17.02;;;2.80;99.90;;;;;;4182511;28;20524;-66
2021/01/16 09:16:51;;;;;;;29.50;17.23;;;2.80;99.90;;;;;;4190194;28;20107;-66
2021/01/16 09:18:55;;;;;;;31.10;16.83;;;2.70;99.90;;;;;;4186598;28;20043;-66
2021/01/16 09:20:59;;;;;;;31.08;16.85;;;2.70;99.90;;;;;;4197134;28;20033;-66
2021/01/16 09:23:18;;;;;;;27.27;15.70;;;2.70;99.90;;;;;;4198788;28;20502;-66
2021/01/16 09:25:26;;;;;;;26.55;15.43;;;2.80;99.90;;;;;;4198548;28;20341;-66
2021/01/16 09:27:29;;;;;;;32.70;17.27;;;2.80;99.90;;;;;;4185493;28;20041;-66
2021/01/16 09:29:30;;;;;;;30.08;17.08;;;2.80;99.90;;;;;;4182761;28;20420;-66
2021/01/16 09:31:38;;;;;;;33.08;18.48;;;2.70;99.90;;;;;;4175961;28;20027;-66
2021/01/16 09:33:43;;;;;;;30.27;17.45;;;2.70;99.90;;;;;;4199516;28;20032;-66
2021/01/16 09:35:43;;;;;;;35.35;18.35;;;2.70;99.90;;;;;;4177352;28;20044;-66
2021/01/16 09:37:44;;;;;;;32.25;17.42;;;2.70;99.90;;;;;;4180427;28;20024;-66
2021/01/16 09:40:00;;;;;;;31.05;17.77;;;2.70;99.90;;;;;;4186491;28;20623;-66
2021/01/16 09:42:19;;;;;;;33.33;17.73;;;2.70;99.90;;;;;;4183044;28;20055;-66
2021/01/16 09:44:42;;;;;;;31.60;17.33;;;2.70;99.90;;;;;;4191759;28;20064;-66
2021/01/16 09:46:43;;;;;;;31.35;17.80;;;2.70;99.90;;;;;;4171102;28;20048;-66
2021/01/16 09:48:45;;;;;;;27.50;16.42;;;2.70;99.90;;;;;;4176640;28;20096;-66
2021/01/16 09:50:46;;;;;;;30.27;17.13;;;2.70;99.90;;;;;;4176857;28;20110;-66
2021/01/16 09:52:48;;;;;;;29.08;16.70;;;2.70;99.90;;;;;;4180598;28;20120;-66
2021/01/16 09:54:50;;;;;;;30.90;16.83;;;2.70;99.90;;;;;;4173928;28;20032;-66
2021/01/16 09:56:51;;;;;;;29.85;17.50;;;2.80;99.90;;;;;;4181211;28;20385;-66
2021/01/16 09:59:00;;;;;;;29.52;16.80;;;2.70;99.90;;;;;;4185563;28;20036;-66
2021/01/16 10:01:14;;;;;;;28.05;16.25;;;2.80;99.90;;;;;;4194946;28;20374;-66
2021/01/16 10:03:15;;;;;;;33.05;18.27;;;2.80;99.90;;;;;;4202407;28;20043;-66
2021/01/16 10:05:28;;;;;;;30.27;17.17;;;2.80;99.90;;;;;;4202473;28;20032;-66
2021/01/16 10:07:43;;;;;;;29.30;17.15;;;2.80;99.90;;;;;;4221897;27;20664;-66
2021/01/16 10:09:49;;;;;;;30.13;17.50;;;2.80;99.90;;;;;;4215493;27;20038;-66
2021/01/16 10:11:50;;;;;;;31.25;17.65;;;2.90;99.90;;;;;;4198508;28;20074;-66
2021/01/16 10:13:53;;;;;;;33.42;17.60;;;2.80;99.90;;;;;;4200428;28;20442;-66
2021/01/16 10:15:57;;;;;;;29.67;16.67;;;2.80;99.90;;;;;;4196424;28;20040;-66
2021/01/16 10:17:58;;;;;;;33.80;18.60;;;2.80;99.90;;;;;;4195028;28;20036;-66
2021/01/16 10:20:09;;;;;;;31.55;18.83;;;2.80;99.90;;;;;;4194032;28;20024;-66
2021/01/16 10:22:10;;;;;;;34.83;18.45;;;2.80;99.90;;;;;;4191720;28;20041;-66
2021/01/16 10:24:19;;;;;;;36.35;20.05;;;2.80;99.90;;;;;;4196086;28;20024;-66
2021/01/16 10:26:22;;;;;;;32.17;18.23;;;2.80;99.90;;;;;;4195942;28;20036;-66
2021/01/16 10:28:26;;;;;;;;;;;2.80;99.90;;;;;;4197469;28;20388;-66
2021/01/16 10:30:31;;;;;;;37.08;18.02;;;2.80;99.90;;;;;;4196514;28;19912;-66
2021/01/16 10:32:31;;;;;;;34.47;17.65;;;2.90;99.90;;;;;;4200122;28;20046;-66
2021/01/16 10:34:33;;;;;;;33.20;18.25;;;2.80;99.90;;;;;;4198974;28;20041;-66
2021/01/16 10:36:34;;;;;;;31.45;17.95;;;2.80;99.90;;;;;;4191420;28;20471;-66
2021/01/16 10:38:47;;;;;;;30.60;16.65;;;2.90;99.90;;;;;;4194565;28;20434;-66